sensor_id;sensor_type;location;lat;lon;timestamp;P1;durP1;ratioP1;P2;durP2;ratioP2
70707;SDS011;58277;47.316;18.908;2024-02-26T00:01:42;24.75;;;11.75;;
70707;SDS011;58277;47.316;18.908;2024-02-26T00:04:08;23.48;;;11.30;;
70707;SDS011;58277;47.316;18.908;2024-02-26T00:06:31;24.75;;;12.30;;
70707;SDS011;58277;47.316;18.908;2024-02-26T00:08:55;23.30;;;11.43;;
70707;SDS011;58277;47.316;18.908;2024-02-26T00:11:18;21.90;;;10.97;;
70707;SDS011;58277;47.316;18.908;2024-02-26T00:13:40;21.50;;;11.10;;
70707;SDS011;58277;47.316;18.908;2024-02-26T00:16:03;22.35;;;11.68;;
70707;SDS011;58277;47.316;18.908;2024-02-26T00:18:26;20.15;;;10.95;;
70707;SDS011;58277;47.316;18.908;2024-02-26T00:20:49;21.15;;;11.65;;
70707;SDS011;58277;47.316;18.908;2024-02-26T00:23:14;20.07;;;10.50;;
70707;SDS011;58277;47.316;18.908;2024-02-26T00:25:38;22.92;;;11.00;;
70707;SDS011;58277;47.316;18.908;2024-02-26T00:28:00;22.02;;;11.18;;
70707;SDS011;58277;47.316;18.908;2024-02-26T00:30:23;20.58;;;10.75;;
70707;SDS011;58277;47.316;18.908;2024-02-26T00:32:46;22.60;;;11.18;;
70707;SDS011;58277;47.316;18.908;2024-02-26T00:35:09;23.20;;;11.53;;
70707;SDS011;58277;47.316;18.908;2024-02-26T00:37:32;22.27;;;11.02;;
70707;SDS011;58277;47.316;18.908;2024-02-26T00:39:54;22.90;;;11.07;;
70707;SDS011;58277;47.316;18.908;2024-02-26T00:42:17;20.45;;;10.40;;
70707;SDS011;58277;47.316;18.908;2024-02-26T00:44:41;21.80;;;10.70;;
70707;SDS011;58277;47.316;18.908;2024-02-26T00:47:04;21.37;;;10.70;;
70707;SDS011;58277;47.316;18.908;2024-02-26T00:49:26;21.63;;;10.85;;
70707;SDS011;58277;47.316;18.908;2024-02-26T00:51:49;20.85;;;10.63;;
70707;SDS011;58277;47.316;18.908;2024-02-26T00:54:12;22.55;;;10.60;;
70707;SDS011;58277;47.316;18.908;2024-02-26T00:56:36;21.10;;;11.10;;
70707;SDS011;58277;47.316;18.908;2024-02-26T00:58:59;20.23;;;10.57;;
70707;SDS011;58277;47.316;18.908;2024-02-26T01:01:21;20.55;;;10.88;;
70707;SDS011;58277;47.316;18.908;2024-02-26T01:03:44;18.65;;;10.35;;
70707;SDS011;58277;47.316;18.908;2024-02-26T01:06:07;20.70;;;10.98;;
70707;SDS011;58277;47.316;18.908;2024-02-26T01:08:31;23.35;;;10.82;;
70707;SDS011;58277;47.316;18.908;2024-02-26T01:10:54;20.00;;;10.70;;
70707;SDS011;58277;47.316;18.908;2024-02-26T01:13:16;23.13;;;10.70;;
70707;SDS011;58277;47.316;18.908;2024-02-26T01:15:39;22.40;;;10.93;;
70707;SDS011;58277;47.316;18.908;2024-02-26T01:18:02;23.45;;;12.25;;
70707;SDS011;58277;47.316;18.908;2024-02-26T01:20:26;23.30;;;12.25;;
70707;SDS011;58277;47.316;18.908;2024-02-26T01:22:49;25.63;;;12.07;;
70707;SDS011;58277;47.316;18.908;2024-02-26T01:25:12;24.13;;;11.60;;
70707;SDS011;58277;47.316;18.908;2024-02-26T01:27:38;20.65;;;11.20;;
70707;SDS011;58277;47.316;18.908;2024-02-26T01:30:02;21.25;;;10.65;;
70707;SDS011;58277;47.316;18.908;2024-02-26T01:32:31;21.88;;;10.55;;
70707;SDS011;58277;47.316;18.908;2024-02-26T01:34:53;22.53;;;11.20;;
70707;SDS011;58277;47.316;18.908;2024-02-26T01:37:16;24.02;;;11.70;;
70707;SDS011;58277;47.316;18.908;2024-02-26T01:39:39;23.75;;;10.75;;
70707;SDS011;58277;47.316;18.908;2024-02-26T01:42:04;21.88;;;11.80;;
70707;SDS011;58277;47.316;18.908;2024-02-26T01:44:27;19.95;;;10.57;;
70707;SDS011;58277;47.316;18.908;2024-02-26T01:46:50;19.93;;;10.83;;
70707;SDS011;58277;47.316;18.908;2024-02-26T01:49:13;21.70;;;10.93;;
70707;SDS011;58277;47.316;18.908;2024-02-26T01:51:37;20.70;;;10.32;;
70707;SDS011;58277;47.316;18.908;2024-02-26T01:54:02;21.60;;;10.57;;
70707;SDS011;58277;47.316;18.908;2024-02-26T01:56:27;20.77;;;10.80;;
70707;SDS011;58277;47.316;18.908;2024-02-26T01:58:52;20.00;;;9.90;;
70707;SDS011;58277;47.316;18.908;2024-02-26T02:01:15;22.35;;;10.52;;
70707;SDS011;58277;47.316;18.908;2024-02-26T02:03:40;18.90;;;9.60;;
70707;SDS011;58277;47.316;18.908;2024-02-26T02:06:04;18.25;;;9.93;;
70707;SDS011;58277;47.316;18.908;2024-02-26T02:08:28;21.30;;;10.38;;
70707;SDS011;58277;47.316;18.908;2024-02-26T02:10:51;21.60;;;10.00;;
70707;SDS011;58277;47.316;18.908;2024-02-26T02:13:13;20.50;;;10.02;;
70707;SDS011;58277;47.316;18.908;2024-02-26T02:15:36;21.55;;;10.10;;
70707;SDS011;58277;47.316;18.908;2024-02-26T02:17:59;21.52;;;10.35;;
70707;SDS011;58277;47.316;18.908;2024-02-26T02:20:35;20.13;;;10.27;;
70707;SDS011;58277;47.316;18.908;2024-02-26T02:22:58;20.53;;;10.83;;
70707;SDS011;58277;47.316;18.908;2024-02-26T02:25:21;20.92;;;10.07;;
70707;SDS011;58277;47.316;18.908;2024-02-26T02:27:43;20.85;;;10.00;;
70707;SDS011;58277;47.316;18.908;2024-02-26T02:30:07;19.35;;;9.77;;
70707;SDS011;58277;47.316;18.908;2024-02-26T02:32:31;18.95;;;9.82;;
70707;SDS011;58277;47.316;18.908;2024-02-26T02:34:55;20.17;;;10.00;;
70707;SDS011;58277;47.316;18.908;2024-02-26T02:37:19;21.33;;;10.38;;
70707;SDS011;58277;47.316;18.908;2024-02-26T02:39:41;20.23;;;9.98;;
70707;SDS011;58277;47.316;18.908;2024-02-26T02:42:05;22.15;;;10.20;;
70707;SDS011;58277;47.316;18.908;2024-02-26T02:44:28;19.60;;;10.10;;
70707;SDS011;58277;47.316;18.908;2024-02-26T02:46:51;19.00;;;10.10;;
70707;SDS011;58277;47.316;18.908;2024-02-26T02:49:15;20.88;;;10.10;;
70707;SDS011;58277;47.316;18.908;2024-02-26T02:51:39;21.83;;;9.98;;
70707;SDS011;58277;47.316;18.908;2024-02-26T02:54:02;22.58;;;11.02;;
70707;SDS011;58277;47.316;18.908;2024-02-26T02:56:25;20.40;;;10.43;;
70707;SDS011;58277;47.316;18.908;2024-02-26T02:58:48;22.33;;;9.90;;
70707;SDS011;58277;47.316;18.908;2024-02-26T03:01:12;21.83;;;10.35;;
70707;SDS011;58277;47.316;18.908;2024-02-26T03:03:35;21.30;;;9.70;;
70707;SDS011;58277;47.316;18.908;2024-02-26T03:05:59;21.70;;;10.90;;
70707;SDS011;58277;47.316;18.908;2024-02-26T03:08:22;20.42;;;9.52;;
70707;SDS011;58277;47.316;18.908;2024-02-26T03:10:46;22.80;;;10.53;;
70707;SDS011;58277;47.316;18.908;2024-02-26T03:13:08;20.88;;;10.23;;
70707;SDS011;58277;47.316;18.908;2024-02-26T03:15:31;20.33;;;10.00;;
70707;SDS011;58277;47.316;18.908;2024-02-26T03:17:54;20.40;;;10.20;;
70707;SDS011;58277;47.316;18.908;2024-02-26T03:20:17;20.27;;;9.98;;
70707;SDS011;58277;47.316;18.908;2024-02-26T03:22:42;20.53;;;9.83;;
70707;SDS011;58277;47.316;18.908;2024-02-26T03:25:04;21.33;;;10.30;;
70707;SDS011;58277;47.316;18.908;2024-02-26T03:27:28;23.77;;;12.98;;
70707;SDS011;58277;47.316;18.908;2024-02-26T03:29:51;20.27;;;10.68;;
70707;SDS011;58277;47.316;18.908;2024-02-26T03:32:15;20.45;;;9.98;;
70707;SDS011;58277;47.316;18.908;2024-02-26T03:34:37;20.57;;;9.93;;
70707;SDS011;58277;47.316;18.908;2024-02-26T03:37:02;18.35;;;9.10;;
70707;SDS011;58277;47.316;18.908;2024-02-26T03:39:25;21.38;;;10.27;;
70707;SDS011;58277;47.316;18.908;2024-02-26T03:41:48;20.75;;;9.85;;
70707;SDS011;58277;47.316;18.908;2024-02-26T03:44:11;23.58;;;9.85;;
70707;SDS011;58277;47.316;18.908;2024-02-26T03:46:34;20.53;;;9.83;;
70707;SDS011;58277;47.316;18.908;2024-02-26T03:48:56;19.02;;;9.80;;
70707;SDS011;58277;47.316;18.908;2024-02-26T03:51:19;22.25;;;10.30;;
70707;SDS011;58277;47.316;18.908;2024-02-26T03:53:42;21.25;;;10.15;;
70707;SDS011;58277;47.316;18.908;2024-02-26T03:56:05;19.65;;;10.20;;
70707;SDS011;58277;47.316;18.908;2024-02-26T03:58:28;22.23;;;10.70;;
70707;SDS011;58277;47.316;18.908;2024-02-26T04:00:51;21.75;;;11.38;;
70707;SDS011;58277;47.316;18.908;2024-02-26T04:03:14;20.25;;;11.00;;
70707;SDS011;58277;47.316;18.908;2024-02-26T04:05:37;24.33;;;12.52;;
70707;SDS011;58277;47.316;18.908;2024-02-26T04:07:59;25.60;;;13.23;;
70707;SDS011;58277;47.316;18.908;2024-02-26T04:10:22;27.80;;;13.70;;
70707;SDS011;58277;47.316;18.908;2024-02-26T04:12:45;29.67;;;13.93;;
70707;SDS011;58277;47.316;18.908;2024-02-26T04:15:09;30.55;;;15.20;;
70707;SDS011;58277;47.316;18.908;2024-02-26T04:17:32;30.88;;;15.10;;
70707;SDS011;58277;47.316;18.908;2024-02-26T04:19:55;30.05;;;15.02;;
70707;SDS011;58277;47.316;18.908;2024-02-26T04:22:18;32.93;;;15.33;;
70707;SDS011;58277;47.316;18.908;2024-02-26T04:24:41;31.15;;;14.18;;
70707;SDS011;58277;47.316;18.908;2024-02-26T04:27:04;30.67;;;15.20;;
70707;SDS011;58277;47.316;18.908;2024-02-26T04:29:26;29.67;;;15.00;;
70707;SDS011;58277;47.316;18.908;2024-02-26T04:31:49;32.47;;;15.05;;
70707;SDS011;58277;47.316;18.908;2024-02-26T04:34:12;33.20;;;15.27;;
70707;SDS011;58277;47.316;18.908;2024-02-26T04:36:36;30.92;;;15.10;;
70707;SDS011;58277;47.316;18.908;2024-02-26T04:38:58;31.20;;;14.73;;
70707;SDS011;58277;47.316;18.908;2024-02-26T04:41:21;31.25;;;14.27;;
70707;SDS011;58277;47.316;18.908;2024-02-26T04:43:44;29.98;;;14.75;;
70707;SDS011;58277;47.316;18.908;2024-02-26T04:46:10;31.80;;;15.47;;
70707;SDS011;58277;47.316;18.908;2024-02-26T04:48:33;33.83;;;16.05;;
70707;SDS011;58277;47.316;18.908;2024-02-26T04:50:55;31.80;;;15.88;;
70707;SDS011;58277;47.316;18.908;2024-02-26T04:53:18;33.03;;;15.65;;
70707;SDS011;58277;47.316;18.908;2024-02-26T04:55:41;32.83;;;15.25;;
70707;SDS011;58277;47.316;18.908;2024-02-26T04:58:04;31.60;;;15.40;;
70707;SDS011;58277;47.316;18.908;2024-02-26T05:00:27;35.85;;;16.92;;
70707;SDS011;58277;47.316;18.908;2024-02-26T05:02:50;32.72;;;15.98;;
70707;SDS011;58277;47.316;18.908;2024-02-26T05:05:12;32.60;;;15.77;;
70707;SDS011;58277;47.316;18.908;2024-02-26T05:07:44;33.10;;;17.15;;
70707;SDS011;58277;47.316;18.908;2024-02-26T05:10:07;36.80;;;17.40;;
70707;SDS011;58277;47.316;18.908;2024-02-26T05:12:30;34.25;;;17.40;;
70707;SDS011;58277;47.316;18.908;2024-02-26T05:14:53;35.10;;;17.17;;
70707;SDS011;58277;47.316;18.908;2024-02-26T05:17:16;32.83;;;16.77;;
70707;SDS011;58277;47.316;18.908;2024-02-26T05:19:39;33.85;;;15.82;;
70707;SDS011;58277;47.316;18.908;2024-02-26T05:22:01;32.80;;;16.17;;
70707;SDS011;58277;47.316;18.908;2024-02-26T05:24:24;32.25;;;15.45;;
70707;SDS011;58277;47.316;18.908;2024-02-26T05:26:47;34.72;;;16.23;;
70707;SDS011;58277;47.316;18.908;2024-02-26T05:29:10;32.88;;;16.65;;
70707;SDS011;58277;47.316;18.908;2024-02-26T05:31:33;34.65;;;16.30;;
70707;SDS011;58277;47.316;18.908;2024-02-26T05:33:56;32.70;;;16.23;;
70707;SDS011;58277;47.316;18.908;2024-02-26T05:36:19;32.88;;;16.05;;
70707;SDS011;58277;47.316;18.908;2024-02-26T05:38:46;34.33;;;17.00;;
70707;SDS011;58277;47.316;18.908;2024-02-26T05:41:09;33.70;;;15.70;;
70707;SDS011;58277;47.316;18.908;2024-02-26T05:43:32;31.73;;;16.75;;
70707;SDS011;58277;47.316;18.908;2024-02-26T05:45:55;32.97;;;16.77;;
70707;SDS011;58277;47.316;18.908;2024-02-26T05:48:18;33.75;;;16.20;;
70707;SDS011;58277;47.316;18.908;2024-02-26T05:50:42;33.88;;;16.20;;
70707;SDS011;58277;47.316;18.908;2024-02-26T05:53:05;30.55;;;15.30;;
70707;SDS011;58277;47.316;18.908;2024-02-26T05:55:27;28.13;;;14.75;;
70707;SDS011;58277;47.316;18.908;2024-02-26T05:57:50;32.43;;;15.30;;
70707;SDS011;58277;47.316;18.908;2024-02-26T06:00:13;31.65;;;15.23;;
70707;SDS011;58277;47.316;18.908;2024-02-26T06:02:37;33.13;;;15.70;;
70707;SDS011;58277;47.316;18.908;2024-02-26T06:05:00;32.67;;;16.55;;
70707;SDS011;58277;47.316;18.908;2024-02-26T06:07:24;31.75;;;16.17;;
70707;SDS011;58277;47.316;18.908;2024-02-26T06:09:47;31.10;;;15.60;;
70707;SDS011;58277;47.316;18.908;2024-02-26T06:12:10;32.17;;;16.23;;
70707;SDS011;58277;47.316;18.908;2024-02-26T06:14:34;33.22;;;16.73;;
70707;SDS011;58277;47.316;18.908;2024-02-26T06:16:56;31.42;;;16.45;;
70707;SDS011;58277;47.316;18.908;2024-02-26T06:19:19;32.05;;;15.43;;
70707;SDS011;58277;47.316;18.908;2024-02-26T06:21:42;31.20;;;15.57;;
70707;SDS011;58277;47.316;18.908;2024-02-26T06:24:05;30.38;;;15.52;;
70707;SDS011;58277;47.316;18.908;2024-02-26T06:26:29;29.60;;;15.60;;
70707;SDS011;58277;47.316;18.908;2024-02-26T06:28:52;30.33;;;15.57;;
70707;SDS011;58277;47.316;18.908;2024-02-26T06:31:17;29.00;;;14.45;;
70707;SDS011;58277;47.316;18.908;2024-02-26T06:33:39;29.10;;;14.70;;
70707;SDS011;58277;47.316;18.908;2024-02-26T06:36:03;29.27;;;15.07;;
70707;SDS011;58277;47.316;18.908;2024-02-26T06:38:28;28.35;;;14.70;;
70707;SDS011;58277;47.316;18.908;2024-02-26T06:40:51;27.45;;;13.93;;
70707;SDS011;58277;47.316;18.908;2024-02-26T06:43:14;28.05;;;13.98;;
70707;SDS011;58277;47.316;18.908;2024-02-26T06:45:36;26.40;;;13.77;;
70707;SDS011;58277;47.316;18.908;2024-02-26T06:47:59;28.35;;;15.05;;
70707;SDS011;58277;47.316;18.908;2024-02-26T06:50:26;29.67;;;15.07;;
70707;SDS011;58277;47.316;18.908;2024-02-26T06:52:49;31.60;;;15.10;;
70707;SDS011;58277;47.316;18.908;2024-02-26T06:55:11;35.60;;;17.67;;
70707;SDS011;58277;47.316;18.908;2024-02-26T06:57:35;31.17;;;15.20;;
70707;SDS011;58277;47.316;18.908;2024-02-26T06:59:58;30.33;;;15.18;;
70707;SDS011;58277;47.316;18.908;2024-02-26T07:02:22;29.15;;;14.45;;
70707;SDS011;58277;47.316;18.908;2024-02-26T07:04:45;29.45;;;15.05;;
70707;SDS011;58277;47.316;18.908;2024-02-26T07:07:08;29.52;;;14.38;;
70707;SDS011;58277;47.316;18.908;2024-02-26T07:09:31;30.57;;;14.93;;
70707;SDS011;58277;47.316;18.908;2024-02-26T07:11:54;27.83;;;13.60;;
70707;SDS011;58277;47.316;18.908;2024-02-26T07:14:19;26.17;;;13.65;;
70707;SDS011;58277;47.316;18.908;2024-02-26T07:16:42;25.55;;;13.73;;
70707;SDS011;58277;47.316;18.908;2024-02-26T07:19:05;26.70;;;13.55;;
70707;SDS011;58277;47.316;18.908;2024-02-26T07:21:28;27.47;;;13.87;;
70707;SDS011;58277;47.316;18.908;2024-02-26T07:23:51;27.20;;;13.82;;
70707;SDS011;58277;47.316;18.908;2024-02-26T07:26:14;26.33;;;13.88;;
70707;SDS011;58277;47.316;18.908;2024-02-26T07:28:39;25.98;;;13.73;;
70707;SDS011;58277;47.316;18.908;2024-02-26T07:31:02;24.85;;;13.88;;
70707;SDS011;58277;47.316;18.908;2024-02-26T07:33:25;25.07;;;14.10;;
70707;SDS011;58277;47.316;18.908;2024-02-26T07:35:48;24.58;;;13.07;;
70707;SDS011;58277;47.316;18.908;2024-02-26T07:38:16;26.85;;;13.68;;
70707;SDS011;58277;47.316;18.908;2024-02-26T07:40:53;23.50;;;12.98;;
70707;SDS011;58277;47.316;18.908;2024-02-26T07:43:26;25.77;;;13.02;;
70707;SDS011;58277;47.316;18.908;2024-02-26T07:45:49;21.90;;;11.50;;
70707;SDS011;58277;47.316;18.908;2024-02-26T07:48:12;22.27;;;11.35;;
70707;SDS011;58277;47.316;18.908;2024-02-26T07:50:36;22.48;;;11.98;;
70707;SDS011;58277;47.316;18.908;2024-02-26T07:52:59;24.20;;;12.20;;
70707;SDS011;58277;47.316;18.908;2024-02-26T07:55:23;21.15;;;11.32;;
70707;SDS011;58277;47.316;18.908;2024-02-26T07:57:48;22.77;;;11.33;;
70707;SDS011;58277;47.316;18.908;2024-02-26T08:00:12;21.38;;;10.93;;
70707;SDS011;58277;47.316;18.908;2024-02-26T08:02:40;23.05;;;11.75;;
70707;SDS011;58277;47.316;18.908;2024-02-26T08:05:03;21.38;;;11.52;;
70707;SDS011;58277;47.316;18.908;2024-02-26T08:07:26;24.05;;;11.93;;
70707;SDS011;58277;47.316;18.908;2024-02-26T08:09:49;22.37;;;11.83;;
70707;SDS011;58277;47.316;18.908;2024-02-26T08:12:12;22.02;;;11.30;;
70707;SDS011;58277;47.316;18.908;2024-02-26T08:14:38;24.50;;;11.77;;
70707;SDS011;58277;47.316;18.908;2024-02-26T08:17:01;21.02;;;11.05;;
70707;SDS011;58277;47.316;18.908;2024-02-26T08:19:24;22.10;;;11.68;;
70707;SDS011;58277;47.316;18.908;2024-02-26T08:21:47;24.63;;;12.07;;
70707;SDS011;58277;47.316;18.908;2024-02-26T08:24:10;22.08;;;11.82;;
70707;SDS011;58277;47.316;18.908;2024-02-26T08:26:35;20.52;;;11.52;;
70707;SDS011;58277;47.316;18.908;2024-02-26T08:28:58;21.55;;;11.45;;
70707;SDS011;58277;47.316;18.908;2024-02-26T08:31:21;19.55;;;10.80;;
70707;SDS011;58277;47.316;18.908;2024-02-26T08:33:46;20.50;;;11.17;;
70707;SDS011;58277;47.316;18.908;2024-02-26T08:36:09;22.02;;;11.73;;
70707;SDS011;58277;47.316;18.908;2024-02-26T08:38:40;21.30;;;11.40;;
70707;SDS011;58277;47.316;18.908;2024-02-26T08:41:04;21.70;;;10.93;;
70707;SDS011;58277;47.316;18.908;2024-02-26T08:43:27;20.23;;;10.73;;
70707;SDS011;58277;47.316;18.908;2024-02-26T08:45:50;20.63;;;10.50;;
70707;SDS011;58277;47.316;18.908;2024-02-26T08:48:13;18.55;;;10.35;;
70707;SDS011;58277;47.316;18.908;2024-02-26T08:50:38;21.25;;;11.00;;
70707;SDS011;58277;47.316;18.908;2024-02-26T08:53:04;21.33;;;10.88;;
70707;SDS011;58277;47.316;18.908;2024-02-26T08:55:29;20.15;;;11.35;;
70707;SDS011;58277;47.316;18.908;2024-02-26T08:57:52;21.97;;;11.43;;
70707;SDS011;58277;47.316;18.908;2024-02-26T09:00:21;21.80;;;11.70;;
70707;SDS011;58277;47.316;18.908;2024-02-26T09:02:44;22.10;;;11.27;;
70707;SDS011;58277;47.316;18.908;2024-02-26T09:05:07;23.95;;;11.95;;
70707;SDS011;58277;47.316;18.908;2024-02-26T09:07:31;20.75;;;11.13;;
70707;SDS011;58277;47.316;18.908;2024-02-26T09:09:54;21.20;;;11.87;;
70707;SDS011;58277;47.316;18.908;2024-02-26T09:12:17;22.52;;;12.02;;
70707;SDS011;58277;47.316;18.908;2024-02-26T09:14:41;20.88;;;11.82;;
70707;SDS011;58277;47.316;18.908;2024-02-26T09:17:04;24.05;;;11.98;;
70707;SDS011;58277;47.316;18.908;2024-02-26T09:19:28;23.27;;;12.23;;
70707;SDS011;58277;47.316;18.908;2024-02-26T09:21:51;23.70;;;11.80;;
70707;SDS011;58277;47.316;18.908;2024-02-26T09:24:16;22.98;;;11.77;;
70707;SDS011;58277;47.316;18.908;2024-02-26T09:26:40;21.92;;;11.82;;
70707;SDS011;58277;47.316;18.908;2024-02-26T09:29:03;25.67;;;12.05;;
70707;SDS011;58277;47.316;18.908;2024-02-26T09:31:47;20.25;;;10.93;;
70707;SDS011;58277;47.316;18.908;2024-02-26T09:34:10;22.17;;;11.30;;
70707;SDS011;58277;47.316;18.908;2024-02-26T09:36:34;22.30;;;11.85;;
70707;SDS011;58277;47.316;18.908;2024-02-26T09:38:57;21.98;;;11.57;;
70707;SDS011;58277;47.316;18.908;2024-02-26T09:41:24;24.63;;;12.02;;
70707;SDS011;58277;47.316;18.908;2024-02-26T09:43:53;20.25;;;11.27;;
70707;SDS011;58277;47.316;18.908;2024-02-26T09:46:19;20.73;;;11.23;;
70707;SDS011;58277;47.316;18.908;2024-02-26T09:48:42;22.02;;;11.73;;
70707;SDS011;58277;47.316;18.908;2024-02-26T09:51:07;23.67;;;11.77;;
70707;SDS011;58277;47.316;18.908;2024-02-26T09:53:34;22.95;;;11.45;;
70707;SDS011;58277;47.316;18.908;2024-02-26T09:56:09;22.17;;;11.20;;
70707;SDS011;58277;47.316;18.908;2024-02-26T09:58:34;19.73;;;10.73;;
70707;SDS011;58277;47.316;18.908;2024-02-26T10:01:02;19.30;;;10.43;;
70707;SDS011;58277;47.316;18.908;2024-02-26T10:03:34;20.55;;;10.23;;
70707;SDS011;58277;47.316;18.908;2024-02-26T10:06:03;18.83;;;10.38;;
70707;SDS011;58277;47.316;18.908;2024-02-26T10:08:32;20.17;;;10.52;;
70707;SDS011;58277;47.316;18.908;2024-02-26T10:10:56;20.67;;;10.83;;
70707;SDS011;58277;47.316;18.908;2024-02-26T10:13:19;19.42;;;10.60;;
70707;SDS011;58277;47.316;18.908;2024-02-26T10:15:42;19.08;;;10.95;;
70707;SDS011;58277;47.316;18.908;2024-02-26T10:18:06;22.58;;;12.07;;
70707;SDS011;58277;47.316;18.908;2024-02-26T10:20:30;24.42;;;13.18;;
70707;SDS011;58277;47.316;18.908;2024-02-26T10:22:54;26.20;;;14.10;;
70707;SDS011;58277;47.316;18.908;2024-02-26T10:25:17;24.73;;;13.10;;
70707;SDS011;58277;47.316;18.908;2024-02-26T10:27:41;23.33;;;12.68;;
70707;SDS011;58277;47.316;18.908;2024-02-26T10:30:15;26.13;;;14.45;;
70707;SDS011;58277;47.316;18.908;2024-02-26T10:32:47;24.35;;;12.90;;
70707;SDS011;58277;47.316;18.908;2024-02-26T10:35:12;21.53;;;12.07;;
70707;SDS011;58277;47.316;18.908;2024-02-26T10:37:36;22.70;;;11.85;;
70707;SDS011;58277;47.316;18.908;2024-02-26T10:39:58;20.58;;;11.48;;
70707;SDS011;58277;47.316;18.908;2024-02-26T10:42:25;18.98;;;10.25;;
70707;SDS011;58277;47.316;18.908;2024-02-26T10:44:48;22.80;;;12.40;;
70707;SDS011;58277;47.316;18.908;2024-02-26T10:47:11;21.50;;;11.37;;
70707;SDS011;58277;47.316;18.908;2024-02-26T10:49:35;22.77;;;12.30;;
70707;SDS011;58277;47.316;18.908;2024-02-26T10:51:58;26.63;;;13.50;;
70707;SDS011;58277;47.316;18.908;2024-02-26T10:54:22;26.15;;;13.80;;
70707;SDS011;58277;47.316;18.908;2024-02-26T10:56:48;24.65;;;12.57;;
70707;SDS011;58277;47.316;18.908;2024-02-26T10:59:13;25.97;;;13.23;;
70707;SDS011;58277;47.316;18.908;2024-02-26T11:01:38;24.55;;;12.18;;
70707;SDS011;58277;47.316;18.908;2024-02-26T11:04:06;23.08;;;11.93;;
70707;SDS011;58277;47.316;18.908;2024-02-26T11:06:31;22.65;;;12.05;;
70707;SDS011;58277;47.316;18.908;2024-02-26T11:08:56;24.80;;;12.77;;
70707;SDS011;58277;47.316;18.908;2024-02-26T11:11:21;22.73;;;12.27;;
70707;SDS011;58277;47.316;18.908;2024-02-26T11:13:45;23.40;;;12.55;;
70707;SDS011;58277;47.316;18.908;2024-02-26T11:16:13;23.02;;;13.05;;
70707;SDS011;58277;47.316;18.908;2024-02-26T11:18:36;22.63;;;12.02;;
70707;SDS011;58277;47.316;18.908;2024-02-26T11:21:03;21.65;;;11.65;;
70707;SDS011;58277;47.316;18.908;2024-02-26T11:23:27;20.80;;;11.00;;
70707;SDS011;58277;47.316;18.908;2024-02-26T11:25:54;20.73;;;10.27;;
70707;SDS011;58277;47.316;18.908;2024-02-26T11:28:19;16.17;;;8.77;;
70707;SDS011;58277;47.316;18.908;2024-02-26T11:30:45;14.15;;;8.48;;
70707;SDS011;58277;47.316;18.908;2024-02-26T11:33:14;14.70;;;8.45;;
70707;SDS011;58277;47.316;18.908;2024-02-26T11:35:38;15.27;;;8.10;;
70707;SDS011;58277;47.316;18.908;2024-02-26T11:38:02;14.85;;;7.75;;
70707;SDS011;58277;47.316;18.908;2024-02-26T11:40:28;13.73;;;7.68;;
70707;SDS011;58277;47.316;18.908;2024-02-26T11:42:54;12.70;;;7.28;;
70707;SDS011;58277;47.316;18.908;2024-02-26T11:48:00;14.05;;;6.82;;
70707;SDS011;58277;47.316;18.908;2024-02-26T11:50:36;10.32;;;5.75;;
70707;SDS011;58277;47.316;18.908;2024-02-26T11:55:44;16.67;;;8.88;;
70707;SDS011;58277;47.316;18.908;2024-02-26T11:58:07;14.02;;;8.40;;
70707;SDS011;58277;47.316;18.908;2024-02-26T12:00:30;12.87;;;7.57;;
70707;SDS011;58277;47.316;18.908;2024-02-26T12:02:55;11.95;;;7.28;;
70707;SDS011;58277;47.316;18.908;2024-02-26T12:05:23;13.93;;;7.10;;
70707;SDS011;58277;47.316;18.908;2024-02-26T12:08:02;10.95;;;6.47;;
70707;SDS011;58277;47.316;18.908;2024-02-26T12:10:31;12.25;;;7.45;;
70707;SDS011;58277;47.316;18.908;2024-02-26T12:13:09;12.20;;;7.60;;
70707;SDS011;58277;47.316;18.908;2024-02-26T12:15:42;11.57;;;7.82;;
70707;SDS011;58277;47.316;18.908;2024-02-26T12:18:20;11.88;;;7.55;;
70707;SDS011;58277;47.316;18.908;2024-02-26T12:20:45;12.63;;;7.57;;
70707;SDS011;58277;47.316;18.908;2024-02-26T12:23:14;11.25;;;7.50;;
70707;SDS011;58277;47.316;18.908;2024-02-26T12:25:39;12.10;;;7.47;;
70707;SDS011;58277;47.316;18.908;2024-02-26T12:28:02;12.60;;;7.28;;
70707;SDS011;58277;47.316;18.908;2024-02-26T12:30:28;11.63;;;7.03;;
70707;SDS011;58277;47.316;18.908;2024-02-26T12:32:55;10.95;;;6.78;;
70707;SDS011;58277;47.316;18.908;2024-02-26T12:35:22;9.90;;;6.65;;
70707;SDS011;58277;47.316;18.908;2024-02-26T12:37:46;9.15;;;5.97;;
70707;SDS011;58277;47.316;18.908;2024-02-26T12:40:09;8.80;;;6.20;;
70707;SDS011;58277;47.316;18.908;2024-02-26T12:42:33;9.13;;;6.10;;
70707;SDS011;58277;47.316;18.908;2024-02-26T12:45:01;8.73;;;5.55;;
70707;SDS011;58277;47.316;18.908;2024-02-26T12:47:25;9.38;;;5.70;;
70707;SDS011;58277;47.316;18.908;2024-02-26T12:49:49;9.35;;;5.53;;
70707;SDS011;58277;47.316;18.908;2024-02-26T12:52:13;11.60;;;5.43;;
70707;SDS011;58277;47.316;18.908;2024-02-26T12:54:37;12.35;;;5.60;;
70707;SDS011;58277;47.316;18.908;2024-02-26T12:57:05;13.13;;;6.00;;
70707;SDS011;58277;47.316;18.908;2024-02-26T12:59:29;6.80;;;4.88;;
70707;SDS011;58277;47.316;18.908;2024-02-26T13:01:53;10.65;;;4.70;;
70707;SDS011;58277;47.316;18.908;2024-02-26T13:04:16;7.28;;;4.72;;
70707;SDS011;58277;47.316;18.908;2024-02-26T13:06:40;6.80;;;4.50;;
70707;SDS011;58277;47.316;18.908;2024-02-26T13:09:03;7.53;;;4.10;;
70707;SDS011;58277;47.316;18.908;2024-02-26T13:11:27;7.53;;;4.30;;
70707;SDS011;58277;47.316;18.908;2024-02-26T13:13:51;7.67;;;4.33;;
70707;SDS011;58277;47.316;18.908;2024-02-26T13:16:16;5.97;;;4.00;;
70707;SDS011;58277;47.316;18.908;2024-02-26T13:18:39;7.88;;;4.53;;
70707;SDS011;58277;47.316;18.908;2024-02-26T13:23:36;7.40;;;4.38;;
70707;SDS011;58277;47.316;18.908;2024-02-26T13:26:00;6.43;;;3.97;;
70707;SDS011;58277;47.316;18.908;2024-02-26T13:28:23;6.82;;;4.15;;
70707;SDS011;58277;47.316;18.908;2024-02-26T13:30:50;5.90;;;3.97;;
70707;SDS011;58277;47.316;18.908;2024-02-26T13:33:26;7.63;;;4.40;;
70707;SDS011;58277;47.316;18.908;2024-02-26T13:35:51;7.75;;;3.85;;
70707;SDS011;58277;47.316;18.908;2024-02-26T13:38:15;7.00;;;4.00;;
70707;SDS011;58277;47.316;18.908;2024-02-26T13:40:38;6.50;;;3.97;;
70707;SDS011;58277;47.316;18.908;2024-02-26T13:43:01;6.40;;;3.95;;
70707;SDS011;58277;47.316;18.908;2024-02-26T13:45:25;6.72;;;3.97;;
70707;SDS011;58277;47.316;18.908;2024-02-26T13:48:01;6.22;;;3.85;;
70707;SDS011;58277;47.316;18.908;2024-02-26T13:50:26;8.50;;;4.28;;
70707;SDS011;58277;47.316;18.908;2024-02-26T13:52:49;6.95;;;4.63;;
70707;SDS011;58277;47.316;18.908;2024-02-26T13:55:15;7.68;;;4.53;;
70707;SDS011;58277;47.316;18.908;2024-02-26T13:57:38;7.55;;;4.32;;
70707;SDS011;58277;47.316;18.908;2024-02-26T14:00:02;6.43;;;4.30;;
70707;SDS011;58277;47.316;18.908;2024-02-26T14:02:33;7.82;;;4.80;;
70707;SDS011;58277;47.316;18.908;2024-02-26T14:04:58;6.25;;;4.20;;